sensor_id;sensor_type;location;lat;lon;timestamp;P1;durP1;ratioP1;P2;durP2;ratioP2
27704;SDS011;15109;50.992;6.918;2022-09-13T00:02:37;1.45;;;0.80;;
27704;SDS011;15109;50.992;6.918;2022-09-13T00:06:05;3.13;;;0.82;;
27704;SDS011;15109;50.992;6.918;2022-09-13T00:09:27;1.38;;;1.05;;
27704;SDS011;15109;50.992;6.918;2022-09-13T00:12:49;2.35;;;1.30;;
27704;SDS011;15109;50.992;6.918;2022-09-13T00:16:14;1.65;;;1.02;;
27704;SDS011;15109;50.992;6.918;2022-09-13T00:19:40;1.50;;;1.02;;
27704;SDS011;15109;50.992;6.918;2022-09-13T00:23:01;3.10;;;1.80;;
27704;SDS011;15109;50.992;6.918;2022-09-13T00:26:26;1.85;;;1.08;;
27704;SDS011;15109;50.992;6.918;2022-09-13T00:29:48;2.88;;;1.60;;
27704;SDS011;15109;50.992;6.918;2022-09-13T00:33:09;3.08;;;1.55;;
27704;SDS011;15109;50.992;6.918;2022-09-13T00:36:30;2.63;;;1.23;;
27704;SDS011;15109;50.992;6.918;2022-09-13T00:39:54;1.85;;;1.17;;
27704;SDS011;15109;50.992;6.918;2022-09-13T00:43:16;2.08;;;1.00;;
27704;SDS011;15109;50.992;6.918;2022-09-13T00:46:43;6.03;;;1.58;;
27704;SDS011;15109;50.992;6.918;2022-09-13T00:56:58;1.20;;;0.82;;
27704;SDS011;15109;50.992;6.918;2022-09-13T01:00:23;1.85;;;1.10;;
27704;SDS011;15109;50.992;6.918;2022-09-13T01:03:44;1.85;;;1.23;;
27704;SDS011;15109;50.992;6.918;2022-09-13T01:07:08;1.35;;;0.95;;
27704;SDS011;15109;50.992;6.918;2022-09-13T01:10:33;3.00;;;1.33;;
27704;SDS011;15109;50.992;6.918;2022-09-13T01:13:55;3.80;;;1.75;;
27704;SDS011;15109;50.992;6.918;2022-09-13T01:17:17;1.10;;;0.80;;
27704;SDS011;15109;50.992;6.918;2022-09-13T01:20:53;1.02;;;0.90;;
27704;SDS011;15109;50.992;6.918;2022-09-13T01:24:53;1.23;;;0.90;;
27704;SDS011;15109;50.992;6.918;2022-09-13T01:43:06;1.83;;;1.30;;
27704;SDS011;15109;50.992;6.918;2022-09-13T01:46:45;4.55;;;1.42;;
27704;SDS011;15109;50.992;6.918;2022-09-13T01:54:14;2.72;;;1.40;;
27704;SDS011;15109;50.992;6.918;2022-09-13T02:01:13;2.33;;;1.27;;
27704;SDS011;15109;50.992;6.918;2022-09-13T02:04:42;1.33;;;1.00;;
27704;SDS011;15109;50.992;6.918;2022-09-13T02:08:17;1.75;;;1.17;;
27704;SDS011;15109;50.992;6.918;2022-09-13T02:11:44;2.95;;;1.13;;
27704;SDS011;15109;50.992;6.918;2022-09-13T02:15:11;1.40;;;0.98;;
27704;SDS011;15109;50.992;6.918;2022-09-13T02:18:35;2.05;;;1.15;;
27704;SDS011;15109;50.992;6.918;2022-09-13T02:22:00;1.63;;;1.23;;
27704;SDS011;15109;50.992;6.918;2022-09-13T02:25:25;1.60;;;1.15;;
27704;SDS011;15109;50.992;6.918;2022-09-13T02:28:53;1.27;;;1.08;;
27704;SDS011;15109;50.992;6.918;2022-09-13T02:32:25;2.88;;;1.77;;
27704;SDS011;15109;50.992;6.918;2022-09-13T02:35:50;1.25;;;0.68;;
27704;SDS011;15109;50.992;6.918;2022-09-13T02:39:16;2.28;;;1.23;;
27704;SDS011;15109;50.992;6.918;2022-09-13T02:42:46;2.90;;;1.40;;
27704;SDS011;15109;50.992;6.918;2022-09-13T02:53:41;3.03;;;1.55;;
27704;SDS011;15109;50.992;6.918;2022-09-13T03:00:53;1.42;;;1.17;;
27704;SDS011;15109;50.992;6.918;2022-09-13T03:04:15;3.00;;;1.58;;
27704;SDS011;15109;50.992;6.918;2022-09-13T03:07:36;2.33;;;1.58;;
27704;SDS011;15109;50.992;6.918;2022-09-13T03:11:45;3.00;;;1.88;;
27704;SDS011;15109;50.992;6.918;2022-09-13T03:14:55;3.42;;;1.77;;
27704;SDS011;15109;50.992;6.918;2022-09-13T03:22:19;1.80;;;1.27;;
27704;SDS011;15109;50.992;6.918;2022-09-13T03:26:10;2.20;;;1.17;;
27704;SDS011;15109;50.992;6.918;2022-09-13T03:33:12;2.75;;;1.60;;
27704;SDS011;15109;50.992;6.918;2022-09-13T03:40:14;1.77;;;1.23;;
27704;SDS011;15109;50.992;6.918;2022-09-13T03:43:41;3.28;;;1.63;;
27704;SDS011;15109;50.992;6.918;2022-09-13T03:50:28;1.90;;;1.25;;
27704;SDS011;15109;50.992;6.918;2022-09-13T03:53:54;2.25;;;1.60;;
27704;SDS011;15109;50.992;6.918;2022-09-13T03:57:19;4.47;;;1.42;;
27704;SDS011;15109;50.992;6.918;2022-09-13T04:00:41;3.05;;;1.35;;
27704;SDS011;15109;50.992;6.918;2022-09-13T04:04:03;1.92;;;1.13;;
27704;SDS011;15109;50.992;6.918;2022-09-13T04:07:24;2.40;;;1.42;;
27704;SDS011;15109;50.992;6.918;2022-09-13T04:10:45;2.83;;;1.58;;
27704;SDS011;15109;50.992;6.918;2022-09-13T04:14:10;2.88;;;1.55;;
27704;SDS011;15109;50.992;6.918;2022-09-13T04:17:31;1.92;;;1.08;;
27704;SDS011;15109;50.992;6.918;2022-09-13T04:20:52;1.95;;;1.30;;
27704;SDS011;15109;50.992;6.918;2022-09-13T04:24:15;2.80;;;1.58;;
27704;SDS011;15109;50.992;6.918;2022-09-13T04:27:37;1.38;;;1.05;;
27704;SDS011;15109;50.992;6.918;2022-09-13T04:30:58;1.95;;;0.98;;
27704;SDS011;15109;50.992;6.918;2022-09-13T04:34:19;2.25;;;1.17;;
27704;SDS011;15109;50.992;6.918;2022-09-13T04:37:42;1.92;;;1.38;;
27704;SDS011;15109;50.992;6.918;2022-09-13T04:41:03;2.28;;;1.05;;
27704;SDS011;15109;50.992;6.918;2022-09-13T04:44:25;2.45;;;1.55;;
27704;SDS011;15109;50.992;6.918;2022-09-13T04:47:53;2.15;;;1.17;;
27704;SDS011;15109;50.992;6.918;2022-09-13T04:51:15;2.45;;;1.42;;
27704;SDS011;15109;50.992;6.918;2022-09-13T04:54:37;2.95;;;1.67;;
27704;SDS011;15109;50.992;6.918;2022-09-13T04:58:01;2.00;;;1.25;;
27704;SDS011;15109;50.992;6.918;2022-09-13T05:01:23;1.27;;;0.93;;
27704;SDS011;15109;50.992;6.918;2022-09-13T05:04:44;2.05;;;1.13;;
27704;SDS011;15109;50.992;6.918;2022-09-13T05:08:05;1.70;;;1.05;;
27704;SDS011;15109;50.992;6.918;2022-09-13T05:11:27;3.63;;;1.85;;
27704;SDS011;15109;50.992;6.918;2022-09-13T05:14:49;2.72;;;1.73;;
27704;SDS011;15109;50.992;6.918;2022-09-13T05:18:10;2.00;;;1.33;;
27704;SDS011;15109;50.992;6.918;2022-09-13T05:21:31;1.55;;;1.10;;
27704;SDS011;15109;50.992;6.918;2022-09-13T05:24:55;1.77;;;1.20;;
27704;SDS011;15109;50.992;6.918;2022-09-13T05:28:16;2.05;;;1.33;;
27704;SDS011;15109;50.992;6.918;2022-09-13T05:31:38;3.25;;;1.85;;
27704;SDS011;15109;50.992;6.918;2022-09-13T05:35:03;2.72;;;1.45;;
27704;SDS011;15109;50.992;6.918;2022-09-13T05:38:24;2.45;;;1.90;;
27704;SDS011;15109;50.992;6.918;2022-09-13T05:41:46;2.53;;;1.55;;
27704;SDS011;15109;50.992;6.918;2022-09-13T05:45:07;0.65;;;0.63;;
27704;SDS011;15109;50.992;6.918;2022-09-13T05:48:29;2.17;;;1.10;;
27704;SDS011;15109;50.992;6.918;2022-09-13T05:51:50;3.22;;;1.40;;
27704;SDS011;15109;50.992;6.918;2022-09-13T05:55:11;1.30;;;1.02;;
27704;SDS011;15109;50.992;6.918;2022-09-13T05:58:33;3.17;;;1.52;;
27704;SDS011;15109;50.992;6.918;2022-09-13T06:01:57;2.53;;;1.60;;
27704;SDS011;15109;50.992;6.918;2022-09-13T06:05:19;3.03;;;1.73;;
27704;SDS011;15109;50.992;6.918;2022-09-13T06:08:40;3.22;;;1.75;;
27704;SDS011;15109;50.992;6.918;2022-09-13T06:12:01;3.22;;;1.75;;
27704;SDS011;15109;50.992;6.918;2022-09-13T06:15:23;1.90;;;1.48;;
27704;SDS011;15109;50.992;6.918;2022-09-13T06:18:47;2.75;;;1.63;;
27704;SDS011;15109;50.992;6.918;2022-09-13T06:22:08;1.80;;;1.30;;
27704;SDS011;15109;50.992;6.918;2022-09-13T06:25:29;2.55;;;1.60;;
27704;SDS011;15109;50.992;6.918;2022-09-13T06:28:54;3.08;;;1.58;;
27704;SDS011;15109;50.992;6.918;2022-09-13T06:32:16;1.95;;;1.15;;
27704;SDS011;15109;50.992;6.918;2022-09-13T06:35:37;2.00;;;1.38;;
27704;SDS011;15109;50.992;6.918;2022-09-13T06:38:58;4.28;;;1.90;;
27704;SDS011;15109;50.992;6.918;2022-09-13T06:42:21;2.92;;;1.48;;
27704;SDS011;15109;50.992;6.918;2022-09-13T06:45:45;1.77;;;1.30;;
27704;SDS011;15109;50.992;6.918;2022-09-13T06:49:06;2.45;;;1.45;;
27704;SDS011;15109;50.992;6.918;2022-09-13T06:52:28;6.55;;;1.33;;
27704;SDS011;15109;50.992;6.918;2022-09-13T06:55:58;1.58;;;0.93;;
27704;SDS011;15109;50.992;6.918;2022-09-13T06:59:30;2.05;;;1.10;;
27704;SDS011;15109;50.992;6.918;2022-09-13T07:02:51;1.60;;;0.90;;
27704;SDS011;15109;50.992;6.918;2022-09-13T07:06:16;2.90;;;1.38;;
27704;SDS011;15109;50.992;6.918;2022-09-13T07:09:39;3.63;;;1.10;;
27704;SDS011;15109;50.992;6.918;2022-09-13T07:13:02;3.22;;;1.08;;
27704;SDS011;15109;50.992;6.918;2022-09-13T07:16:24;4.05;;;1.40;;
27704;SDS011;15109;50.992;6.918;2022-09-13T07:19:47;2.65;;;1.17;;
27704;SDS011;15109;50.992;6.918;2022-09-13T07:23:08;2.15;;;1.25;;
27704;SDS011;15109;50.992;6.918;2022-09-13T07:26:29;2.00;;;1.05;;
27704;SDS011;15109;50.992;6.918;2022-09-13T07:29:51;4.50;;;1.52;;
27704;SDS011;15109;50.992;6.918;2022-09-13T07:33:12;2.00;;;1.00;;
27704;SDS011;15109;50.992;6.918;2022-09-13T07:36:34;3.90;;;1.75;;
27704;SDS011;15109;50.992;6.918;2022-09-13T07:39:56;3.40;;;1.52;;
27704;SDS011;15109;50.992;6.918;2022-09-13T07:43:17;2.05;;;1.10;;
27704;SDS011;15109;50.992;6.918;2022-09-13T07:46:38;1.65;;;1.10;;
27704;SDS011;15109;50.992;6.918;2022-09-13T07:50:01;1.60;;;1.13;;
27704;SDS011;15109;50.992;6.918;2022-09-13T07:53:22;2.67;;;1.55;;
27704;SDS011;15109;50.992;6.918;2022-09-13T07:56:43;2.03;;;1.10;;
27704;SDS011;15109;50.992;6.918;2022-09-13T08:00:05;2.97;;;1.27;;
27704;SDS011;15109;50.992;6.918;2022-09-13T08:03:33;2.25;;;1.38;;
27704;SDS011;15109;50.992;6.918;2022-09-13T08:06:54;2.38;;;1.33;;
27704;SDS011;15109;50.992;6.918;2022-09-13T08:10:15;2.42;;;1.35;;
27704;SDS011;15109;50.992;6.918;2022-09-13T08:13:36;2.88;;;1.52;;
27704;SDS011;15109;50.992;6.918;2022-09-13T08:16:57;1.55;;;1.00;;
27704;SDS011;15109;50.992;6.918;2022-09-13T08:20:19;3.00;;;1.40;;
27704;SDS011;15109;50.992;6.918;2022-09-13T08:23:40;2.08;;;1.30;;
27704;SDS011;15109;50.992;6.918;2022-09-13T08:27:01;2.60;;;1.60;;
27704;SDS011;15109;50.992;6.918;2022-09-13T08:30:22;1.63;;;1.20;;
27704;SDS011;15109;50.992;6.918;2022-09-13T08:33:44;1.10;;;0.82;;
27704;SDS011;15109;50.992;6.918;2022-09-13T08:37:06;1.42;;;1.00;;
27704;SDS011;15109;50.992;6.918;2022-09-13T08:40:31;1.33;;;0.85;;
27704;SDS011;15109;50.992;6.918;2022-09-13T08:44:07;1.60;;;0.95;;
27704;SDS011;15109;50.992;6.918;2022-09-13T08:51:45;2.53;;;1.35;;
27704;SDS011;15109;50.992;6.918;2022-09-13T08:55:14;1.50;;;1.10;;
27704;SDS011;15109;50.992;6.918;2022-09-13T09:06:12;1.67;;;1.30;;
27704;SDS011;15109;50.992;6.918;2022-09-13T09:09:39;2.55;;;0.82;;
27704;SDS011;15109;50.992;6.918;2022-09-13T09:13:06;3.00;;;1.27;;
27704;SDS011;15109;50.992;6.918;2022-09-13T09:20:23;1.20;;;0.75;;
27704;SDS011;15109;50.992;6.918;2022-09-13T09:23:49;0.95;;;0.60;;
27704;SDS011;15109;50.992;6.918;2022-09-13T09:27:14;1.38;;;0.90;;
27704;SDS011;15109;50.992;6.918;2022-09-13T09:30:42;0.93;;;0.70;;
27704;SDS011;15109;50.992;6.918;2022-09-13T09:37:46;1.60;;;0.90;;
27704;SDS011;15109;50.992;6.918;2022-09-13T09:44:50;0.60;;;0.50;;
27704;SDS011;15109;50.992;6.918;2022-09-13T09:48:15;0.77;;;0.60;;
27704;SDS011;15109;50.992;6.918;2022-09-13T09:51:44;0.80;;;0.77;;
27704;SDS011;15109;50.992;6.918;2022-09-13T09:55:49;1.70;;;0.63;;
27704;SDS011;15109;50.992;6.918;2022-09-13T09:58:50;1.00;;;0.65;;
27704;SDS011;15109;50.992;6.918;2022-09-13T10:02:14;0.88;;;0.75;;
27704;SDS011;15109;50.992;6.918;2022-09-13T10:05:38;0.73;;;0.63;;
27704;SDS011;15109;50.992;6.918;2022-09-13T10:09:00;1.55;;;0.75;;
27704;SDS011;15109;50.992;6.918;2022-09-13T10:12:25;1.17;;;0.68;;
27704;SDS011;15109;50.992;6.918;2022-09-13T10:15:53;0.70;;;0.70;;
27704;SDS011;15109;50.992;6.918;2022-09-13T10:19:22;0.93;;;0.60;;
27704;SDS011;15109;50.992;6.918;2022-09-13T10:22:44;0.60;;;0.47;;
27704;SDS011;15109;50.992;6.918;2022-09-13T10:26:37;1.92;;;0.88;;
27704;SDS011;15109;50.992;6.918;2022-09-13T10:29:58;1.50;;;0.80;;
27704;SDS011;15109;50.992;6.918;2022-09-13T10:33:26;0.55;;;0.55;;
27704;SDS011;15109;50.992;6.918;2022-09-13T10:40:26;1.90;;;1.05;;
27704;SDS011;15109;50.992;6.918;2022-09-13T10:43:57;1.38;;;0.98;;
27704;SDS011;15109;50.992;6.918;2022-09-13T10:47:29;1.42;;;0.82;;
27704;SDS011;15109;50.992;6.918;2022-09-13T10:55:01;0.60;;;0.45;;
27704;SDS011;15109;50.992;6.918;2022-09-13T10:58:35;1.48;;;0.70;;
27704;SDS011;15109;50.992;6.918;2022-09-13T11:02:40;1.73;;;0.88;;
27704;SDS011;15109;50.992;6.918;2022-09-13T11:06:01;1.52;;;0.80;;
27704;SDS011;15109;50.992;6.918;2022-09-13T11:39:18;0.47;;;0.47;;
27704;SDS011;15109;50.992;6.918;2022-09-13T11:47:02;0.60;;;0.60;;
27704;SDS011;15109;50.992;6.918;2022-09-13T11:57:46;0.63;;;0.57;;
27704;SDS011;15109;50.992;6.918;2022-09-13T12:01:12;0.63;;;0.43;;
27704;SDS011;15109;50.992;6.918;2022-09-13T12:04:53;0.55;;;0.50;;
27704;SDS011;15109;50.992;6.918;2022-09-13T12:08:31;2.22;;;0.65;;
27704;SDS011;15109;50.992;6.918;2022-09-13T12:18:51;0.68;;;0.50;;
27704;SDS011;15109;50.992;6.918;2022-09-13T12:22:16;1.43;;;0.80;;
27704;SDS011;15109;50.992;6.918;2022-09-13T12:25:48;1.35;;;0.70;;
27704;SDS011;15109;50.992;6.918;2022-09-13T12:29:13;1.63;;;0.70;;
27704;SDS011;15109;50.992;6.918;2022-09-13T12:32:37;0.85;;;0.50;;
27704;SDS011;15109;50.992;6.918;2022-09-13T12:43:19;0.38;;;0.32;;
27704;SDS011;15109;50.992;6.918;2022-09-13T12:58:16;0.55;;;0.47;;
27704;SDS011;15109;50.992;6.918;2022-09-13T13:02:00;2.47;;;1.02;;
27704;SDS011;15109;50.992;6.918;2022-09-13T13:05:42;0.73;;;0.55;;
27704;SDS011;15109;50.992;6.918;2022-09-13T13:09:16;0.52;;;0.40;;
27704;SDS011;15109;50.992;6.918;2022-09-13T13:12:43;0.85;;;0.60;;
27704;SDS011;15109;50.992;6.918;2022-09-13T13:19:47;0.35;;;0.35;;
27704;SDS011;15109;50.992;6.918;2022-09-13T13:26:55;0.40;;;0.40;;
27704;SDS011;15109;50.992;6.918;2022-09-13T13:37:47;0.40;;;0.40;;
27704;SDS011;15109;50.992;6.918;2022-09-13T13:48:35;4.68;;;0.65;;
27704;SDS011;15109;50.992;6.918;2022-09-13T14:10:10;0.52;;;0.52;;
27704;SDS011;15109;50.992;6.918;2022-09-13T14:20:59;0.88;;;0.43;;
27704;SDS011;15109;50.992;6.918;2022-09-13T14:27:45;0.80;;;0.50;;
27704;SDS011;15109;50.992;6.918;2022-09-13T14:31:13;1.00;;;0.65;;
27704;SDS011;15109;50.992;6.918;2022-09-13T14:34:48;0.70;;;0.68;;
27704;SDS011;15109;50.992;6.918;2022-09-13T14:41:46;1.42;;;0.90;;
27704;SDS011;15109;50.992;6.918;2022-09-13T14:45:41;1.58;;;0.73;;
27704;SDS011;15109;50.992;6.918;2022-09-13T14:48:59;0.52;;;0.50;;
27704;SDS011;15109;50.992;6.918;2022-09-13T14:52:25;0.57;;;0.57;;
27704;SDS011;15109;50.992;6.918;2022-09-13T14:55:55;0.50;;;0.50;;
27704;SDS011;15109;50.992;6.918;2022-09-13T14:59:43;0.55;;;0.52;;
27704;SDS011;15109;50.992;6.918;2022-09-13T15:03:09;0.85;;;0.60;;
27704;SDS011;15109;50.992;6.918;2022-09-13T15:06:36;0.30;;;0.30;;
27704;SDS011;15109;50.992;6.918;2022-09-13T15:13:25;0.88;;;0.63;;
27704;SDS011;15109;50.992;6.918;2022-09-13T15:16:48;1.95;;;0.80;;
27704;SDS011;15109;50.992;6.918;2022-09-13T15:20:16;1.02;;;0.75;;
27704;SDS011;15109;50.992;6.918;2022-09-13T15:23:38;0.77;;;0.50;;
27704;SDS011;15109;50.992;6.918;2022-09-13T15:27:03;0.43;;;0.43;;
27704;SDS011;15109;50.992;6.918;2022-09-13T15:30:28;1.38;;;0.60;;
27704;SDS011;15109;50.992;6.918;2022-09-13T15:37:36;1.23;;;0.65;;
27704;SDS011;15109;50.992;6.918;2022-09-13T15:41:11;1.27;;;0.55;;
27704;SDS011;15109;50.992;6.918;2022-09-13T15:44:37;0.88;;;0.60;;
27704;SDS011;15109;50.992;6.918;2022-09-13T15:47:58;0.60;;;0.60;;
27704;SDS011;15109;50.992;6.918;2022-09-13T15:51:22;0.20;;;0.20;;
27704;SDS011;15109;50.992;6.918;2022-09-13T15:54:45;1.38;;;0.70;;
27704;SDS011;15109;50.992;6.918;2022-09-13T15:58:08;3.97;;;0.82;;
27704;SDS011;15109;50.992;6.918;2022-09-13T16:01:30;0.93;;;0.60;;
27704;SDS011;15109;50.992;6.918;2022-09-13T16:04:51;0.30;;;0.30;;
27704;SDS011;15109;50.992;6.918;2022-09-13T16:08:13;1.35;;;0.70;;
27704;SDS011;15109;50.992;6.918;2022-09-13T16:11:34;3.22;;;1.10;;
27704;SDS011;15109;50.992;6.918;2022-09-13T16:14:57;0.73;;;0.57;;
27704;SDS011;15109;50.992;6.918;2022-09-13T16:18:18;0.95;;;0.55;;
27704;SDS011;15109;50.992;6.918;2022-09-13T16:21:42;2.63;;;0.88;;
27704;SDS011;15109;50.992;6.918;2022-09-13T16:25:03;0.50;;;0.50;;
27704;SDS011;15109;50.992;6.918;2022-09-13T16:28:24;0.50;;;0.50;;
27704;SDS011;15109;50.992;6.918;2022-09-13T16:31:45;0.75;;;0.57;;
27704;SDS011;15109;50.992;6.918;2022-09-13T16:35:07;1.05;;;0.63;;
27704;SDS011;15109;50.992;6.918;2022-09-13T16:38:29;0.85;;;0.50;;
27704;SDS011;15109;50.992;6.918;2022-09-13T16:41:50;0.80;;;0.57;;
27704;SDS011;15109;50.992;6.918;2022-09-13T16:45:11;0.20;;;0.20;;
27704;SDS011;15109;50.992;6.918;2022-09-13T16:48:32;0.75;;;0.47;;
27704;SDS011;15109;50.992;6.918;2022-09-13T16:51:56;0.43;;;0.35;;
27704;SDS011;15109;50.992;6.918;2022-09-13T16:58:42;1.10;;;0.77;;
27704;SDS011;15109;50.992;6.918;2022-09-13T17:02:11;1.33;;;0.82;;
27704;SDS011;15109;50.992;6.918;2022-09-13T17:05:32;2.47;;;1.08;;
27704;SDS011;15109;50.992;6.918;2022-09-13T17:08:58;2.15;;;0.65;;
27704;SDS011;15109;50.992;6.918;2022-09-13T17:12:21;1.60;;;0.88;;
27704;SDS011;15109;50.992;6.918;2022-09-13T17:15:42;1.33;;;0.63;;
27704;SDS011;15109;50.992;6.918;2022-09-13T17:19:06;3.05;;;0.80;;
27704;SDS011;15109;50.992;6.918;2022-09-13T17:22:29;0.93;;;0.80;;
27704;SDS011;15109;50.992;6.918;2022-09-13T17:25:51;1.70;;;1.05;;
27704;SDS011;15109;50.992;6.918;2022-09-13T17:29:13;1.83;;;0.88;;
27704;SDS011;15109;50.992;6.918;2022-09-13T17:32:35;0.90;;;0.60;;
27704;SDS011;15109;50.992;6.918;2022-09-13T17:35:57;1.33;;;0.77;;
27704;SDS011;15109;50.992;6.918;2022-09-13T17:39:23;1.42;;;0.95;;
27704;SDS011;15109;50.992;6.918;2022-09-13T17:42:44;1.52;;;0.90;;
27704;SDS011;15109;50.992;6.918;2022-09-13T17:46:09;1.13;;;0.85;;
27704;SDS011;15109;50.992;6.918;2022-09-13T17:49:41;1.40;;;0.93;;
27704;SDS011;15109;50.992;6.918;2022-09-13T17:53:02;5.88;;;1.00;;
27704;SDS011;15109;50.992;6.918;2022-09-13T17:56:25;2.08;;;1.38;;
27704;SDS011;15109;50.992;6.918;2022-09-13T17:59:50;2.83;;;1.60;;
27704;SDS011;15109;50.992;6.918;2022-09-13T18:03:11;2.08;;;1.38;;
27704;SDS011;15109;50.992;6.918;2022-09-13T18:06:33;3.47;;;1.98;;
27704;SDS011;15109;50.992;6.918;2022-09-13T18:09:55;3.65;;;2.13;;
27704;SDS011;15109;50.992;6.918;2022-09-13T18:13:17;3.88;;;1.60;;
27704;SDS011;15109;50.992;6.918;2022-09-13T18:16:39;5.68;;;2.42;;
27704;SDS011;15109;50.992;6.918;2022-09-13T18:20:00;7.45;;;2.95;;
27704;SDS011;15109;50.992;6.918;2022-09-13T18:23:22;3.47;;;2.08;;
27704;SDS011;15109;50.992;6.918;2022-09-13T18:26:44;3.08;;;1.65;;
27704;SDS011;15109;50.992;6.918;2022-09-13T18:30:05;3.10;;;1.52;;
27704;SDS011;15109;50.992;6.918;2022-09-13T18:33:27;2.22;;;1.38;;
27704;SDS011;15109;50.992;6.918;2022-09-13T18:36:49;1.65;;;1.15;;
27704;SDS011;15109;50.992;6.918;2022-09-13T18:40:10;1.27;;;0.90;;
27704;SDS011;15109;50.992;6.918;2022-09-13T18:43:34;1.73;;;1.00;;
27704;SDS011;15109;50.992;6.918;2022-09-13T18:46:59;1.65;;;1.15;;
27704;SDS011;15109;50.992;6.918;2022-09-13T18:50:22;0.85;;;0.80;;
27704;SDS011;15109;50.992;6.918;2022-09-13T18:53:43;5.32;;;1.30;;
27704;SDS011;15109;50.992;6.918;2022-09-13T18:57:05;1.77;;;1.25;;
27704;SDS011;15109;50.992;6.918;2022-09-13T19:00:26;1.52;;;1.00;;
27704;SDS011;15109;50.992;6.918;2022-09-13T19:03:48;0.85;;;0.70;;
27704;SDS011;15109;50.992;6.918;2022-09-13T19:07:17;2.88;;;1.00;;
27704;SDS011;15109;50.992;6.918;2022-09-13T19:10:41;0.88;;;0.70;;
27704;SDS011;15109;50.992;6.918;2022-09-13T19:14:02;1.75;;;1.17;;
27704;SDS011;15109;50.992;6.918;2022-09-13T19:17:24;2.08;;;1.17;;
27704;SDS011;15109;50.992;6.918;2022-09-13T19:20:45;4.18;;;1.13;;
27704;SDS011;15109;50.992;6.918;2022-09-13T19:24:06;3.83;;;1.27;;
27704;SDS011;15109;50.992;6.918;2022-09-13T19:27:27;4.03;;;1.70;;
27704;SDS011;15109;50.992;6.918;2022-09-13T19:30:48;3.72;;;1.50;;
27704;SDS011;15109;50.992;6.918;2022-09-13T19:34:10;2.30;;;1.10;;
27704;SDS011;15109;50.992;6.918;2022-09-13T19:37:31;7.47;;;2.03;;
27704;SDS011;15109;50.992;6.918;2022-09-13T19:40:56;3.50;;;1.77;;
27704;SDS011;15109;50.992;6.918;2022-09-13T19:44:19;3.80;;;1.88;;
27704;SDS011;15109;50.992;6.918;2022-09-13T19:47:40;7.95;;;2.03;;
27704;SDS011;15109;50.992;6.918;2022-09-13T19:51:01;2.58;;;1.63;;
27704;SDS011;15109;50.992;6.918;2022-09-13T19:54:25;2.33;;;1.35;;
27704;SDS011;15109;50.992;6.918;2022-09-13T19:57:46;3.22;;;1.80;;
27704;SDS011;15109;50.992;6.918;2022-09-13T20:01:11;3.17;;;1.67;;
27704;SDS011;15109;50.992;6.918;2022-09-13T20:04:37;2.63;;;1.52;;
27704;SDS011;15109;50.992;6.918;2022-09-13T20:07:59;3.45;;;1.70;;
27704;SDS011;15109;50.992;6.918;2022-09-13T20:11:20;3.97;;;1.90;;
27704;SDS011;15109;50.992;6.918;2022-09-13T20:14:42;2.67;;;1.65;;
27704;SDS011;15109;50.992;6.918;2022-09-13T20:18:03;4.43;;;2.22;;
27704;SDS011;15109;50.992;6.918;2022-09-13T20:21:26;3.88;;;2.15;;
27704;SDS011;15109;50.992;6.918;2022-09-13T20:24:50;2.80;;;1.88;;
27704;SDS011;15109;50.992;6.918;2022-09-13T20:28:11;1.98;;;1.33;;
27704;SDS011;15109;50.992;6.918;2022-09-13T20:31:33;4.88;;;2.53;;
27704;SDS011;15109;50.992;6.918;2022-09-13T20:34:56;4.43;;;2.25;;
27704;SDS011;15109;50.992;6.918;2022-09-13T20:38:17;2.28;;;1.50;;
27704;SDS011;15109;50.992;6.918;2022-09-13T20:41:39;3.72;;;2.17;;
27704;SDS011;15109;50.992;6.918;2022-09-13T20:45:00;3.42;;;2.00;;
27704;SDS011;15109;50.992;6.918;2022-09-13T20:48:21;2.33;;;1.50;;
27704;SDS011;15109;50.992;6.918;2022-09-13T20:51:42;2.70;;;1.65;;
27704;SDS011;15109;50.992;6.918;2022-09-13T20:55:04;3.25;;;1.83;;
27704;SDS011;15109;50.992;6.918;2022-09-13T20:58:25;2.35;;;1.50;;
27704;SDS011;15109;50.992;6.918;2022-09-13T21:01:46;3.13;;;1.80;;
27704;SDS011;15109;50.992;6.918;2022-09-13T21:05:08;7.70;;;2.17;;
27704;SDS011;15109;50.992;6.918;2022-09-13T21:08:29;4.00;;;1.95;;
27704;SDS011;15109;50.992;6.918;2022-09-13T21:12:02;2.55;;;1.52;;
27704;SDS011;15109;50.992;6.918;2022-09-13T21:15:23;3.95;;;2.25;;
27704;SDS011;15109;50.992;6.918;2022-09-13T21:18:45;3.88;;;1.80;;
27704;SDS011;15109;50.992;6.918;2022-09-13T21:22:06;3.45;;;2.00;;
27704;SDS011;15109;50.992;6.918;2022-09-13T21:25:27;4.55;;;1.92;;
27704;SDS011;15109;50.992;6.918;2022-09-13T21:28:49;1.90;;;1.05;;
27704;SDS011;15109;50.992;6.918;2022-09-13T21:32:10;4.70;;;2.13;;
27704;SDS011;15109;50.992;6.918;2022-09-13T21:35:35;2.90;;;1.95;;
27704;SDS011;15109;50.992;6.918;2022-09-13T21:38:59;2.78;;;1.42;;
27704;SDS011;15109;50.992;6.918;2022-09-13T21:42:20;2.15;;;1.52;;
27704;SDS011;15109;50.992;6.918;2022-09-13T21:45:42;2.13;;;1.27;;
27704;SDS011;15109;50.992;6.918;2022-09-13T21:49:06;2.63;;;1.10;;
27704;SDS011;15109;50.992;6.918;2022-09-13T21:52:29;1.35;;;1.08;;
27704;SDS011;15109;50.992;6.918;2022-09-13T21:55:50;3.03;;;1.25;;
27704;SDS011;15109;50.992;6.918;2022-09-13T21:59:12;1.00;;;0.90;;
27704;SDS011;15109;50.992;6.918;2022-09-13T22:02:36;2.30;;;1.50;;
27704;SDS011;15109;50.992;6.918;2022-09-13T22:05:57;4.90;;;1.83;;
27704;SDS011;15109;50.992;6.918;2022-09-13T22:09:18;1.48;;;0.98;;
27704;SDS011;15109;50.992;6.918;2022-09-13T22:12:41;1.38;;;1.02;;
27704;SDS011;15109;50.992;6.918;2022-09-13T22:16:06;2.85;;;1.58;;
27704;SDS011;15109;50.992;6.918;2022-09-13T22:19:28;5.07;;;2.17;;
27704;SDS011;15109;50.992;6.918;2022-09-13T22:22:51;2.65;;;1.52;;
27704;SDS011;15109;50.992;6.918;2022-09-13T22:26:16;1.88;;;1.20;;
27704;SDS011;15109;50.992;6.918;2022-09-13T22:29:39;2.35;;;1.30;;
27704;SDS011;15109;50.992;6.918;2022-09-13T22:33:00;1.58;;;1.17;;
27704;SDS011;15109;50.992;6.918;2022-09-13T22:36:21;1.58;;;1.00;;
27704;SDS011;15109;50.992;6.918;2022-09-13T22:39:43;2.13;;;1.25;;
27704;SDS011;15109;50.992;6.918;2022-09-13T22:43:04;3.17;;;1.83;;
27704;SDS011;15109;50.992;6.918;2022-09-13T22:46:26;3.25;;;2.10;;
27704;SDS011;15109;50.992;6.918;2022-09-13T22:49:52;1.15;;;0.90;;
27704;SDS011;15109;50.992;6.918;2022-09-13T22:53:13;1.42;;;0.85;;
27704;SDS011;15109;50.992;6.918;2022-09-13T22:56:37;2.28;;;1.02;;
27704;SDS011;15109;50.992;6.918;2022-09-13T22:59:58;1.45;;;0.85;;
27704;SDS011;15109;50.992;6.918;2022-09-13T23:03:19;1.85;;;1.23;;
27704;SDS011;15109;50.992;6.918;2022-09-13T23:06:41;1.42;;;0.82;;
27704;SDS011;15109;50.992;6.918;2022-09-13T23:10:05;1.88;;;1.15;;
27704;SDS011;15109;50.992;6.918;2022-09-13T23:13:26;2.15;;;1.35;;
27704;SDS011;15109;50.992;6.918;2022-09-13T23:16:48;2.03;;;1.15;;
27704;SDS011;15109;50.992;6.918;2022-09-13T23:20:10;3.25;;;1.88;;
27704;SDS011;15109;50.992;6.918;2022-09-13T23:23:31;2.33;;;1.48;;
27704;SDS011;15109;50.992;6.918;2022-09-13T23:26:53;3.88;;;1.98;;
27704;SDS011;15109;50.992;6.918;2022-09-13T23:30:15;4.07;;;1.85;;
27704;SDS011;15109;50.992;6.918;2022-09-13T23:33:40;2.15;;;1.27;;
27704;SDS011;15109;50.992;6.918;2022-09-13T23:37:03;1.88;;;1.42;;
27704;SDS011;15109;50.992;6.918;2022-09-13T23:40:24;5.28;;;2.47;;
27704;SDS011;15109;50.992;6.918;2022-09-13T23:43:45;3.47;;;1.90;;
27704;SDS011;15109;50.992;6.918;2022-09-13T23:47:07;4.68;;;2.17;;
27704;SDS011;15109;50.992;6.918;2022-09-13T23:50:31;2.30;;;1.35;;
27704;SDS011;15109;50.992;6.918;2022-09-13T23:53:52;3.88;;;2.10;;
27704;SDS011;15109;50.992;6.918;2022-09-13T23:57:16;3.67;;;2.03;;
